»·PEaware :: SWA258 KSJC-KBUR

SWA258 :: KSJC-KBUR

FLIGHT INFORMATION

Flight Status: Arrived
Operator:
Southwest Airlines
More flights by this operator :: More flights under this callsign
Pilot: Brad M. (22842)
Aircraft: BOEING 737-800
(B738)
More flights by this aircraft type
Origin: KSJC Mineta San Jose Intl
United States
Destination: KBUR Bob Hope-Burbank
United States
More flights between these airports :: More routes between these airports
Route: TECKY3 EBAYE BURGL HONZK ROKKR2
File this flight plan on PilotEdge
Remarks:
Altitude:
(Current/Filed)
31,000ft
Speed:
(Current/Filed)
470kts
Departed: 19-Nov-20 03:41 PM
Arrived: 19-Nov-20 04:27 PM
Distance/Time
Traveled:
258nm/0:45
Distance/Time
To Go:
Arrived

Flight Plot

Page will automatically refresh every two minutes.

Flight plan parsing failed; only flown route is shown


Map Options




Map Legend


Flown Route
Filed Route
Departure Airport
Arrival Airport
Navaid (VOR, NDB)
Fix

Horizontal Profiles

Position Reports

Time Latitude Longitude Heading Altitude Ground
Speed
19-Nov-20 14:52 37.363310 -121.923699 48 63ft 0kts
19-Nov-20 14:53 37.363310 -121.923699 48 63ft 0kts
19-Nov-20 14:54 37.363310 -121.923699 48 63ft 0kts
19-Nov-20 14:55 37.363310 -121.923699 48 63ft 0kts
19-Nov-20 14:56 37.363310 -121.923699 48 63ft 0kts
19-Nov-20 14:57 37.363310 -121.923699 48 63ft 0kts
19-Nov-20 14:58 37.363310 -121.923699 48 63ft 0kts
19-Nov-20 14:59 37.363310 -121.923699 48 63ft 0kts
19-Nov-20 14:59 37.363310 -121.923699 48 63ft 0kts
19-Nov-20 15:01 37.363310 -121.923699 48 63ft 0kts
19-Nov-20 15:02 37.363310 -121.923699 48 63ft 0kts
19-Nov-20 15:03 37.363310 -121.923699 48 63ft 0kts
19-Nov-20 15:03 37.363310 -121.923699 48 63ft 0kts
19-Nov-20 15:04 37.363310 -121.923699 48 63ft 0kts
19-Nov-20 15:05 37.363310 -121.923699 48 63ft 0kts
19-Nov-20 15:06 37.363310 -121.923699 48 63ft 0kts
19-Nov-20 15:07 37.363310 -121.923699 48 63ft 0kts
19-Nov-20 15:08 37.363310 -121.923699 48 63ft 0kts
19-Nov-20 15:09 37.363310 -121.923699 48 63ft 0kts
19-Nov-20 15:10 37.363310 -121.923699 48 63ft 0kts
19-Nov-20 15:11 37.363310 -121.923699 48 63ft 0kts
19-Nov-20 15:12 37.363310 -121.923699 48 63ft 0kts
19-Nov-20 15:13 37.363310 -121.923699 48 63ft 0kts
19-Nov-20 15:14 37.363310 -121.923699 48 63ft 0kts
19-Nov-20 15:15 37.363310 -121.923699 48 63ft 0kts
19-Nov-20 15:16 37.363310 -121.923699 48 63ft 0kts
19-Nov-20 15:17 37.363310 -121.923699 48 63ft 0kts
19-Nov-20 15:18 37.363310 -121.923699 48 63ft 0kts
19-Nov-20 15:19 37.363310 -121.923699 48 63ft 0kts
19-Nov-20 15:20 37.363310 -121.923699 48 63ft 0kts
19-Nov-20 15:21 37.363310 -121.923699 48 63ft 0kts
19-Nov-20 15:22 37.363310 -121.923699 48 63ft 0kts
19-Nov-20 15:23 37.363310 -121.923699 48 63ft 0kts
19-Nov-20 15:24 37.363310 -121.923699 48 63ft 0kts
19-Nov-20 15:25 37.363310 -121.923699 48 63ft 0kts
19-Nov-20 15:26 37.363310 -121.923699 48 63ft 0kts
19-Nov-20 15:27 37.363310 -121.923699 48 63ft 0kts
19-Nov-20 15:28 37.363310 -121.923699 48 63ft 0kts
19-Nov-20 15:29 37.363310 -121.923699 48 63ft 0kts
19-Nov-20 15:30 37.363310 -121.923699 48 63ft 0kts
19-Nov-20 15:31 37.363068 -121.924493 120 63ft 2kts
19-Nov-20 15:32 37.363257 -121.924734 138 63ft 0kts
19-Nov-20 15:33 37.363257 -121.924734 138 63ft 0kts
19-Nov-20 15:34 37.363219 -121.924693 138 63ft 4kts
19-Nov-20 15:35 37.361207 -121.922492 139 63ft 9kts
19-Nov-20 15:36 37.359210 -121.920308 138 63ft 12kts
19-Nov-20 15:37 37.356561 -121.917383 138 63ft 11kts
19-Nov-20 15:38 37.354288 -121.914885 138 63ft 9kts
19-Nov-20 15:39 37.353079 -121.914468 225 63ft 0kts
19-Nov-20 15:40 37.357190 -121.920655 319 64ft 102kts
19-Nov-20 15:41 37.389471 -121.954430 320 2104ft 173kts
19-Nov-20 15:42 37.439441 -121.969569 34 4166ft 230kts
19-Nov-20 15:43 37.426915 -121.897825 152 5352ft 263kts
19-Nov-20 15:44 37.370730 -121.842616 133 8497ft 272kts
19-Nov-20 15:45 37.314181 -121.769911 137 11024ft 307kts
19-Nov-20 15:46 37.245686 -121.693174 141 13124ft 356kts
19-Nov-20 15:47 37.164808 -121.602151 141 14522ft 414kts
19-Nov-20 15:48 37.077140 -121.503463 142 16958ft 433kts
19-Nov-20 15:49 36.984238 -121.403424 145 19166ft 448kts
19-Nov-20 15:50 36.887704 -121.301126 145 21168ft 462kts
19-Nov-20 15:51 36.788552 -121.195269 146 22911ft 475kts
19-Nov-20 15:52 36.686404 -121.087456 146 24415ft 486kts
19-Nov-20 15:53 36.581980 -120.978031 147 25859ft 493kts
19-Nov-20 15:54 36.474758 -120.869782 147 27103ft 501kts
19-Nov-20 15:55 36.367006 -120.760974 148 28723ft 496kts
19-Nov-20 15:56 36.260512 -120.653019 148 30354ft 492kts
19-Nov-20 15:57 36.153463 -120.545278 148 31247ft 496kts
19-Nov-20 15:58 36.046789 -120.438025 148 31258ft 492kts
19-Nov-20 15:59 35.940204 -120.331817 148 31260ft 493kts
19-Nov-20 16:00 35.830875 -120.231177 156 31259ft 484kts
19-Nov-20 16:01 35.715599 -120.145287 156 31252ft 484kts
19-Nov-20 16:02 35.595886 -120.075510 167 31233ft 473kts
19-Nov-20 16:03 35.471971 -120.019854 167 31241ft 473kts
19-Nov-20 16:04 35.348444 -119.963685 166 30745ft 473kts
19-Nov-20 16:05 35.224896 -119.907925 166 27359ft 474kts
19-Nov-20 16:06 35.102858 -119.845770 155 24583ft 486kts
19-Nov-20 16:07 34.997335 -119.743631 144 21806ft 475kts
19-Nov-20 16:08 34.901416 -119.645479 145 20392ft 423kts
19-Nov-20 16:09 34.824003 -119.542732 133 18871ft 410kts
19-Nov-20 16:10 34.753367 -119.436619 132 16927ft 400kts
19-Nov-20 16:11 34.685206 -119.332578 132 15133ft 387kts
19-Nov-20 16:12 34.622908 -119.228730 122 13590ft 373kts
19-Nov-20 16:13 34.571495 -119.123328 123 12304ft 354kts
19-Nov-20 16:14 34.510156 -119.036496 147 11114ft 330kts
19-Nov-20 16:15 34.441419 -118.968131 126 10217ft 308kts
19-Nov-20 16:16 34.397072 -118.882834 121 8416ft 296kts
19-Nov-20 16:17 34.353717 -118.799236 118 7295ft 283kts
19-Nov-20 16:18 34.330342 -118.711365 100 6305ft 266kts
19-Nov-20 16:19 34.321910 -118.630571 91 6320ft 214kts
19-Nov-20 16:20 34.319961 -118.564735 89 5392ft 192kts
19-Nov-20 16:21 34.321741 -118.502804 89 4685ft 173kts
19-Nov-20 16:22 34.314697 -118.448899 108 3827ft 157kts
19-Nov-20 16:23 34.291015 -118.406581 133 2863ft 153kts
19-Nov-20 16:24 34.257448 -118.375413 152 1919ft 150kts
19-Nov-20 16:25 34.217057 -118.361733 165 920ft 152kts
19-Nov-20 16:26 34.195857 -118.355930 166 729ft 15kts
19-Nov-20 16:27 34.196631 -118.355512 348 729ft 8kts
19-Nov-20 16:28 34.197234 -118.354424 89 729ft 4kts
19-Nov-20 16:29 34.197216 -118.353039 90 729ft 3kts
19-Nov-20 16:30 34.197181 -118.351545 91 729ft 7kts
19-Nov-20 16:31 34.196830 -118.351042 180 729ft 0kts
19-Nov-20 16:32 34.196830 -118.351042 180 729ft 0kts
19-Nov-20 16:34 34.196830 -118.351042 180 729ft 0kts
19-Nov-20 16:35 34.196830 -118.351042 180 729ft 0kts
19-Nov-20 16:36 34.196830 -118.351042 180 729ft 0kts
19-Nov-20 16:37 34.196830 -118.351042 180 729ft 0kts

Navigation Log

Ident Type
Flight plan parsing failed, navigation log unavailable